createdAt,value
2023-09-24T00:00:34.669Z,2.00
2023-09-24T00:03:38.665Z,2.22
2023-09-24T00:06:41.772Z,2.00
2023-09-24T00:09:44.735Z,2.00
2023-09-24T00:12:48.048Z,1.98
2023-09-24T00:15:51.380Z,2.00
2023-09-24T00:18:54.117Z,2.00
2023-09-24T00:21:56.895Z,2.33
2023-09-24T00:24:59.768Z,1.90
2023-09-24T00:28:03.486Z,1.67
2023-09-24T00:31:06.616Z,1.83
2023-09-24T00:34:09.545Z,1.92
2023-09-24T00:37:12.810Z,1.90
2023-09-24T00:40:15.454Z,1.80
2023-09-24T00:43:27.497Z,1.90
2023-09-24T00:46:32.520Z,1.77
2023-09-24T00:49:35.412Z,1.80
2023-09-24T00:52:39.564Z,1.90
2023-09-24T00:55:43.877Z,1.80
2023-09-24T00:58:51.795Z,1.80
2023-09-24T01:01:55.013Z,1.90
2023-09-24T01:04:58.857Z,1.77
2023-09-24T01:08:01.560Z,1.90
2023-09-24T01:11:06.338Z,2.00
2023-09-24T01:14:09.296Z,1.90
2023-09-24T01:17:12.426Z,2.00
2023-09-24T01:20:15.541Z,2.03
2023-09-24T01:23:18.584Z,1.98
2023-09-24T01:26:24.154Z,1.80
2023-09-24T01:29:28.288Z,2.00
2023-09-24T01:32:31.316Z,1.80
2023-09-24T01:35:36.348Z,1.95
2023-09-24T01:38:43.617Z,1.95
2023-09-24T01:41:50.704Z,2.00
2023-09-24T01:44:54.014Z,1.85
2023-09-24T01:47:58.334Z,1.90
2023-09-24T01:51:11.383Z,1.67
2023-09-24T01:54:14.295Z,1.85
2023-09-24T01:57:17.202Z,1.80
2023-09-24T02:00:22.889Z,1.90
2023-09-24T02:03:26.616Z,1.90
2023-09-24T02:06:29.380Z,1.80
2023-09-24T02:09:33.396Z,2.50
2023-09-24T02:12:37.966Z,2.17
2023-09-24T02:15:42.109Z,2.10
2023-09-24T02:18:45.026Z,1.70
2023-09-24T02:21:47.676Z,1.73
2023-09-24T02:24:50.513Z,1.95
2023-09-24T02:27:53.882Z,1.90
2023-09-24T02:30:57.513Z,1.95
2023-09-24T02:34:00.630Z,2.00
2023-09-24T02:37:03.879Z,1.95
2023-09-24T02:40:10.316Z,1.70
2023-09-24T02:43:14.054Z,1.85
2023-09-24T02:46:16.814Z,1.80
2023-09-24T02:49:21.857Z,1.93
2023-09-24T02:52:25.356Z,1.77
2023-09-24T02:55:29.984Z,1.95
2023-09-24T02:58:32.907Z,1.70
2023-09-24T03:01:36.532Z,2.03
2023-09-24T03:04:39.475Z,2.17
2023-09-24T03:07:42.261Z,1.80
2023-09-24T03:10:44.964Z,1.70
2023-09-24T03:13:47.940Z,1.70
2023-09-24T03:16:50.610Z,1.92
2023-09-24T03:19:53.516Z,1.70
2023-09-24T03:23:09.944Z,1.92
2023-09-24T03:26:16.439Z,1.80
2023-09-24T03:29:20.565Z,1.83
2023-09-24T03:32:23.211Z,2.00
2023-09-24T03:35:27.300Z,2.10
2023-09-24T03:38:30.292Z,1.80
2023-09-24T03:41:33.229Z,2.15
2023-09-24T03:44:36.024Z,1.90
2023-09-24T03:47:40.158Z,1.95
2023-09-24T03:50:43.245Z,1.80
2023-09-24T03:53:46.325Z,1.70
2023-09-24T03:56:49.211Z,1.83
2023-09-24T03:59:52.236Z,1.95
2023-09-24T04:02:55.148Z,1.77
2023-09-24T04:05:58.934Z,1.90
2023-09-24T04:09:01.852Z,1.80
2023-09-24T04:12:06.235Z,1.70
2023-09-24T04:15:09.614Z,1.70
2023-09-24T04:18:12.471Z,1.60
2023-09-24T04:21:17.005Z,1.70
2023-09-24T04:24:20.580Z,2.10
2023-09-24T04:27:24.016Z,1.90
2023-09-24T04:30:26.748Z,1.75
2023-09-24T04:33:31.347Z,1.80
2023-09-24T04:36:34.355Z,1.70
2023-09-24T04:39:36.890Z,1.70
2023-09-24T04:42:39.715Z,1.85
2023-09-24T04:45:42.846Z,1.50
2023-09-24T04:48:45.752Z,1.85
2023-09-24T04:51:48.718Z,1.73
2023-09-24T04:54:53.873Z,1.90
2023-09-24T04:57:56.780Z,1.70
2023-09-24T05:01:06.516Z,1.67
2023-09-24T05:04:09.486Z,1.60
2023-09-24T05:07:12.468Z,1.90
2023-09-24T05:10:15.406Z,1.80
2023-09-24T05:13:18.034Z,1.80
2023-09-24T05:16:22.839Z,1.70
2023-09-24T05:19:27.514Z,1.80
2023-09-24T05:22:30.364Z,1.63
2023-09-24T05:25:38.381Z,1.88
2023-09-24T05:28:42.095Z,1.58
2023-09-24T05:31:44.638Z,1.60
2023-09-24T05:34:53.477Z,1.60
2023-09-24T05:37:56.280Z,1.80
2023-09-24T05:41:00.699Z,1.90
2023-09-24T05:44:05.897Z,1.90
2023-09-24T05:47:08.737Z,1.80
2023-09-24T05:50:11.618Z,1.88
2023-09-24T05:53:16.124Z,1.53
2023-09-24T05:56:18.899Z,1.80
2023-09-24T05:59:21.777Z,1.90
2023-09-24T06:02:27.902Z,1.60
2023-09-24T06:05:30.545Z,1.90
2023-09-24T06:08:33.514Z,1.80
2023-09-24T06:11:39.728Z,1.70
2023-09-24T06:14:43.170Z,1.63
2023-09-24T06:17:46.202Z,1.70
2023-09-24T06:20:49.563Z,1.60
2023-09-24T06:23:52.544Z,1.70
2023-09-24T06:26:55.490Z,1.70
2023-09-24T06:29:58.435Z,1.75
2023-09-24T06:33:01.503Z,1.73
2023-09-24T06:36:05.220Z,1.60
2023-09-24T06:39:15.145Z,1.83
2023-09-24T06:42:17.881Z,1.70
2023-09-24T06:45:20.726Z,1.70
2023-09-24T06:48:24.475Z,1.60
2023-09-24T06:51:28.060Z,1.63
2023-09-24T06:54:33.843Z,1.73
2023-09-24T06:57:37.800Z,1.80
2023-09-24T07:00:40.679Z,1.58
2023-09-24T07:03:43.886Z,1.50
2023-09-24T07:06:46.968Z,1.92
2023-09-24T07:09:49.846Z,1.80
2023-09-24T07:12:53.800Z,1.70
2023-09-24T07:15:56.704Z,1.65
2023-09-24T07:19:00.046Z,1.58
2023-09-24T07:22:03.526Z,1.70
2023-09-24T07:25:07.352Z,1.60
2023-09-24T07:28:09.872Z,1.83
2023-09-24T07:31:22.919Z,1.60
2023-09-24T07:34:26.062Z,1.88
2023-09-24T07:37:28.899Z,1.60
2023-09-24T07:40:31.665Z,1.53
2023-09-24T07:43:35.602Z,1.65
2023-09-24T07:46:38.529Z,1.60
2023-09-24T07:49:41.307Z,2.05
2023-09-24T07:52:44.106Z,1.52
2023-09-24T07:55:46.984Z,1.70
2023-09-24T07:58:49.996Z,1.52
2023-09-24T08:01:52.814Z,1.85
2023-09-24T08:04:55.656Z,1.60
2023-09-24T08:07:58.899Z,1.63
2023-09-24T08:11:02.414Z,1.67
2023-09-24T08:14:05.362Z,1.63
2023-09-24T08:17:08.178Z,1.60
2023-09-24T08:20:11.469Z,1.60
2023-09-24T08:23:14.358Z,1.48
2023-09-24T08:26:17.345Z,1.50
2023-09-24T08:29:20.213Z,1.63
2023-09-24T08:32:25.121Z,1.48
2023-09-24T08:35:28.115Z,1.67
2023-09-24T08:38:30.923Z,1.60
2023-09-24T08:41:34.072Z,1.50
2023-09-24T08:44:41.160Z,1.60
2023-09-24T08:47:44.413Z,1.70
2023-09-24T08:50:48.484Z,1.50
2023-09-24T08:53:54.091Z,1.55
2023-09-24T08:56:57.156Z,1.57
2023-09-24T09:00:00.085Z,1.60
2023-09-24T09:03:06.475Z,1.58
2023-09-24T09:06:10.153Z,1.80
2023-09-24T09:09:25.594Z,1.50
2023-09-24T09:12:28.334Z,1.53
2023-09-24T09:15:31.317Z,1.70
2023-09-24T09:18:36.492Z,1.88
2023-09-24T09:21:39.325Z,1.55
2023-09-24T09:24:42.633Z,1.50
2023-09-24T09:27:45.599Z,1.80
2023-09-24T09:31:08.551Z,1.60
2023-09-24T09:34:11.605Z,1.73
2023-09-24T09:37:18.947Z,1.70
2023-09-24T09:40:21.658Z,1.60
2023-09-24T09:43:30.976Z,1.50
2023-09-24T09:46:40.373Z,1.67
2023-09-24T09:49:49.306Z,1.67
2023-09-24T09:52:55.572Z,1.42
2023-09-24T09:56:01.353Z,1.73
2023-09-24T09:59:05.999Z,1.50
2023-09-24T10:02:08.841Z,1.60
2023-09-24T10:05:12.991Z,1.60
2023-09-24T10:08:35.570Z,1.40
2023-09-24T10:11:38.112Z,1.52
2023-09-24T10:14:44.352Z,1.67
2023-09-24T10:17:47.408Z,1.50
2023-09-24T10:20:50.681Z,1.60
2023-09-24T10:23:53.983Z,1.73
2023-09-24T10:27:05.156Z,1.45
2023-09-24T10:30:09.070Z,1.50
2023-09-24T10:33:12.073Z,1.50
2023-09-24T10:36:31.939Z,1.42
2023-09-24T10:39:34.921Z,1.40
2023-09-24T10:42:39.431Z,1.67
2023-09-24T10:45:42.762Z,1.40
2023-09-24T10:48:49.986Z,1.80
2023-09-24T10:52:00.508Z,1.50
2023-09-24T10:55:03.802Z,1.60
2023-09-24T10:58:10.470Z,1.83
2023-09-24T11:01:13.466Z,1.87
2023-09-24T11:04:28.205Z,1.80
2023-09-24T11:07:32.150Z,1.85
2023-09-24T11:10:35.895Z,1.75
2023-09-24T11:13:40.658Z,1.65
2023-09-24T11:16:44.327Z,1.30
2023-09-24T11:19:48.676Z,1.65
2023-09-24T11:23:04.545Z,1.52
2023-09-24T11:26:07.800Z,1.50
2023-09-24T11:29:11.047Z,1.70
2023-09-24T11:32:26.537Z,1.50
2023-09-24T11:35:29.681Z,1.55
2023-09-24T11:38:34.919Z,1.77
2023-09-24T11:41:37.567Z,1.65
2023-09-24T11:44:48.009Z,1.60
2023-09-24T11:47:52.269Z,1.50
2023-09-24T11:50:56.620Z,1.60
2023-09-24T11:54:01.518Z,1.80
2023-09-24T11:57:04.888Z,1.70
2023-09-24T12:00:09.337Z,1.65
2023-09-24T12:03:15.727Z,1.50
2023-09-24T12:06:19.286Z,1.70
2023-09-24T12:09:22.000Z,1.60
2023-09-24T12:12:24.932Z,1.63
2023-09-24T12:15:27.854Z,1.67
2023-09-24T12:18:31.002Z,1.57
2023-09-24T12:21:34.190Z,1.50
2023-09-24T12:24:37.176Z,1.50
2023-09-24T12:27:41.058Z,1.38
2023-09-24T12:30:44.594Z,1.80
2023-09-24T12:33:47.403Z,1.60
2023-09-24T12:36:50.643Z,1.48
2023-09-24T12:39:54.292Z,1.60
2023-09-24T12:42:57.320Z,1.70
2023-09-24T12:46:07.765Z,1.60
2023-09-24T12:49:10.895Z,2.00
2023-09-24T12:52:14.263Z,1.40
2023-09-24T12:55:17.925Z,1.65
2023-09-24T12:58:21.245Z,1.60
2023-09-24T13:01:25.090Z,1.50
2023-09-24T13:04:29.249Z,1.60
2023-09-24T13:07:32.697Z,1.60
2023-09-24T13:10:35.901Z,1.90
2023-09-24T13:13:39.526Z,1.75
2023-09-24T13:16:43.841Z,1.60
2023-09-24T13:19:47.555Z,1.60
2023-09-24T13:22:51.340Z,1.70
2023-09-24T13:25:55.510Z,1.70
2023-09-24T13:28:59.104Z,1.80
2023-09-24T13:32:04.104Z,1.73
2023-09-24T13:35:09.082Z,1.60
2023-09-24T13:38:12.477Z,1.63
2023-09-24T13:41:16.724Z,1.80
2023-09-24T13:44:20.483Z,1.63
2023-09-24T13:47:23.588Z,1.48
2023-09-24T13:50:27.165Z,1.57
2023-09-24T13:53:30.323Z,1.70
2023-09-24T13:56:33.670Z,1.63
2023-09-24T13:59:37.305Z,1.58
2023-09-24T14:02:43.047Z,1.77
2023-09-24T14:05:46.214Z,1.70
2023-09-24T14:09:08.056Z,1.60
2023-09-24T14:12:26.598Z,1.73
2023-09-24T14:15:32.846Z,1.55
2023-09-24T14:18:38.112Z,1.80
2023-09-24T14:21:42.227Z,1.70
2023-09-24T14:24:46.037Z,1.70
2023-09-24T14:27:51.550Z,1.45
2023-09-24T14:30:56.959Z,1.80
2023-09-24T14:34:01.250Z,1.77
2023-09-24T14:37:05.302Z,1.60
2023-09-24T14:40:09.598Z,1.50
2023-09-24T14:43:13.893Z,1.63
2023-09-24T14:46:18.196Z,1.63
2023-09-24T14:49:22.432Z,1.63
2023-09-24T14:52:26.469Z,1.50
2023-09-24T14:55:31.404Z,1.77
2023-09-24T14:58:39.834Z,1.63
2023-09-24T15:01:43.689Z,1.70
2023-09-24T15:04:51.845Z,1.60
2023-09-24T15:07:56.306Z,1.80
2023-09-24T15:11:04.476Z,1.58
2023-09-24T15:14:07.978Z,1.75
2023-09-24T15:17:12.327Z,1.60
2023-09-24T15:20:16.222Z,1.67
2023-09-24T15:23:22.222Z,1.50
2023-09-24T15:26:27.464Z,1.40
2023-09-24T15:29:32.106Z,1.50
2023-09-24T15:32:37.496Z,1.40
2023-09-24T15:35:41.569Z,1.40
2023-09-24T15:38:46.611Z,1.70
2023-09-24T15:41:51.186Z,1.63
2023-09-24T15:44:56.512Z,1.50
2023-09-24T15:48:05.479Z,1.60
2023-09-24T15:51:21.036Z,1.60
2023-09-24T15:54:27.131Z,1.80
2023-09-24T15:57:32.286Z,1.52
2023-09-24T16:00:37.574Z,1.42
2023-09-24T16:03:42.369Z,1.50
2023-09-24T16:06:47.670Z,1.42
2023-09-24T16:09:54.045Z,1.30
2023-09-24T16:13:00.148Z,1.48
2023-09-24T16:16:04.869Z,1.70
2023-09-24T16:19:09.384Z,1.63
2023-09-24T16:22:13.726Z,1.50
2023-09-24T16:25:18.545Z,1.40
2023-09-24T16:28:22.561Z,1.60
2023-09-24T16:31:28.459Z,1.45
2023-09-24T16:34:36.236Z,1.52
2023-09-24T16:37:44.948Z,1.42
2023-09-24T16:40:59.247Z,1.40
2023-09-24T16:44:05.396Z,1.40
2023-09-24T16:47:11.321Z,1.50
2023-09-24T16:50:15.582Z,1.48
2023-09-24T16:53:20.702Z,1.45
2023-09-24T16:56:25.106Z,1.50
2023-09-24T16:59:31.497Z,1.50
2023-09-24T17:02:36.392Z,1.40
2023-09-24T17:05:41.457Z,1.33
2023-09-24T17:08:46.131Z,1.77
2023-09-24T17:11:52.613Z,1.40
2023-09-24T17:14:57.726Z,1.30
2023-09-24T17:18:02.201Z,1.55
2023-09-24T17:21:13.737Z,1.42
2023-09-24T17:24:24.909Z,1.70
2023-09-24T17:27:29.178Z,1.33
2023-09-24T17:30:36.066Z,1.33
2023-09-24T17:33:42.213Z,1.45
2023-09-24T17:37:00.195Z,1.10
2023-09-24T17:40:06.007Z,1.52
2023-09-24T17:43:12.034Z,1.53
2023-09-24T17:46:20.715Z,1.50
2023-09-24T17:49:26.758Z,1.40
2023-09-24T17:52:31.873Z,1.42
2023-09-24T17:55:37.721Z,1.42
2023-09-24T17:58:43.025Z,1.37
2023-09-24T18:01:48.319Z,1.50
2023-09-24T18:04:57.588Z,1.60
2023-09-24T18:08:02.730Z,1.30
2023-09-24T18:11:08.356Z,1.40
2023-09-24T18:14:13.796Z,1.20
2023-09-24T18:17:20.199Z,1.40
2023-09-24T18:20:27.153Z,1.40
2023-09-24T18:23:36.731Z,1.40
2023-09-24T18:26:42.569Z,1.50
2023-09-24T18:29:48.820Z,1.47
2023-09-24T18:32:54.531Z,1.40
2023-09-24T18:36:01.517Z,1.60
2023-09-24T18:39:07.048Z,1.30
2023-09-24T18:42:12.228Z,1.40
2023-09-24T18:45:17.490Z,1.10
2023-09-24T18:48:24.312Z,1.30
2023-09-24T18:51:31.869Z,1.45
2023-09-24T18:54:38.530Z,1.30
2023-09-24T18:57:46.889Z,1.23
2023-09-24T19:00:56.393Z,1.40
2023-09-24T19:04:03.096Z,1.13
2023-09-24T19:07:12.826Z,1.33
2023-09-24T19:10:20.230Z,1.20
2023-09-24T19:13:30.741Z,1.38
2023-09-24T19:16:37.111Z,1.30
2023-09-24T19:19:41.393Z,1.73
2023-09-24T19:22:48.480Z,1.23
2023-09-24T19:25:55.093Z,1.35
2023-09-24T19:29:00.224Z,1.30
2023-09-24T19:32:05.885Z,1.30
2023-09-24T19:35:12.584Z,1.42
2023-09-24T19:38:18.038Z,1.25
2023-09-24T19:41:33.598Z,1.20
2023-09-24T19:44:43.996Z,1.30
2023-09-24T19:47:50.595Z,1.20
2023-09-24T19:50:56.387Z,1.25
2023-09-24T19:54:01.879Z,1.38
2023-09-24T19:57:09.087Z,1.40
2023-09-24T20:00:18.330Z,1.42
2023-09-24T20:03:22.402Z,1.30
2023-09-24T20:06:26.614Z,1.20
2023-09-24T20:09:40.693Z,1.50
2023-09-24T20:12:45.727Z,1.30
2023-09-24T20:15:51.184Z,1.50
2023-09-24T20:18:56.437Z,1.40
2023-09-24T20:22:01.279Z,1.23
2023-09-24T20:25:14.641Z,1.40
2023-09-24T20:28:27.568Z,1.30
2023-09-24T20:31:44.602Z,1.30
2023-09-24T20:34:48.552Z,1.20
2023-09-24T20:37:52.945Z,1.20
2023-09-24T20:41:18.851Z,1.33
2023-09-24T20:44:22.247Z,1.30
2023-09-24T20:47:26.496Z,1.50
2023-09-24T20:50:31.546Z,1.40
2023-09-24T20:53:35.368Z,1.20
2023-09-24T20:56:38.310Z,1.20
2023-09-24T21:00:13.138Z,1.20
2023-09-24T21:03:16.548Z,1.30
2023-09-24T21:06:20.841Z,1.20
2023-09-24T21:09:24.224Z,1.40
2023-09-24T21:12:27.183Z,1.23
2023-09-24T21:15:31.223Z,1.05
2023-09-24T21:18:34.553Z,1.25
2023-09-24T21:21:39.204Z,1.10
2023-09-24T21:24:43.171Z,1.40
2023-09-24T21:27:46.770Z,1.15
2023-09-24T21:30:49.737Z,1.10
2023-09-24T21:33:53.915Z,1.20
2023-09-24T21:36:56.889Z,1.00
2023-09-24T21:40:00.786Z,1.17
2023-09-24T21:43:04.542Z,1.20
2023-09-24T21:46:07.759Z,1.20
2023-09-24T21:49:11.590Z,1.13
2023-09-24T21:52:14.567Z,1.10
2023-09-24T21:55:18.450Z,1.20
2023-09-24T21:58:21.564Z,1.40
2023-09-24T22:01:25.481Z,1.10
2023-09-24T22:04:28.707Z,1.10
2023-09-24T22:07:32.674Z,1.20
2023-09-24T22:10:36.147Z,1.10
2023-09-24T22:13:38.765Z,1.38
2023-09-24T22:16:42.662Z,1.17
2023-09-24T22:19:46.132Z,1.40
2023-09-24T22:22:49.656Z,1.20
2023-09-24T22:25:52.748Z,1.30
2023-09-24T22:29:00.206Z,1.30
2023-09-24T22:32:03.927Z,1.38
2023-09-24T22:35:13.225Z,1.40
2023-09-24T22:38:16.001Z,1.27
2023-09-24T22:41:18.789Z,1.20
2023-09-24T22:44:21.674Z,1.10
2023-09-24T22:47:24.236Z,1.10
2023-09-24T22:50:27.182Z,1.50
2023-09-24T22:53:30.235Z,1.00
2023-09-24T22:56:33.231Z,1.20
2023-09-24T22:59:35.979Z,1.20
2023-09-24T23:02:38.750Z,1.20
2023-09-24T23:05:42.336Z,1.52
2023-09-24T23:08:45.172Z,1.10
2023-09-24T23:11:47.972Z,1.10
2023-09-24T23:14:51.109Z,1.10
2023-09-24T23:17:53.818Z,1.15
2023-09-24T23:20:56.675Z,1.20
2023-09-24T23:23:59.204Z,1.20
2023-09-24T23:27:01.961Z,1.10
2023-09-24T23:30:06.315Z,1.10
2023-09-24T23:33:11.683Z,1.17
2023-09-24T23:36:14.601Z,1.40
2023-09-24T23:39:17.406Z,1.03
2023-09-24T23:42:20.020Z,1.17
2023-09-24T23:45:22.690Z,1.30
2023-09-24T23:48:25.540Z,1.17
2023-09-24T23:51:28.373Z,1.00
2023-09-24T23:54:33.020Z,1.00
2023-09-24T23:57:36.042Z,1.10
